createdAt,value
2022-08-19T00:01:28.814Z,99905.98
2022-08-19T00:04:02.009Z,99906.29
2022-08-19T00:06:29.386Z,99905.75
2022-08-19T00:08:56.815Z,99902.92
2022-08-19T00:11:26.022Z,99901.98
2022-08-19T00:13:53.925Z,99901.14
2022-08-19T00:16:26.247Z,99902.48
2022-08-19T00:18:56.449Z,99904.39
2022-08-19T00:21:27.738Z,99904.60
2022-08-19T00:23:55.528Z,99909.15
2022-08-19T00:26:22.456Z,99903.33
2022-08-19T00:28:49.406Z,99902.60
2022-08-19T00:31:16.771Z,99906.48
2022-08-19T00:33:44.232Z,99907.89
2022-08-19T00:36:11.385Z,99910.86
2022-08-19T00:38:40.411Z,99909.65
2022-08-19T00:41:07.536Z,99908.52
2022-08-19T00:43:34.483Z,99909.04
2022-08-19T00:46:04.018Z,99907.44
2022-08-19T00:48:30.939Z,99900.66
2022-08-19T00:50:57.885Z,99894.77
2022-08-19T00:53:27.602Z,99896.36
2022-08-19T00:55:56.085Z,99896.45
2022-08-19T00:58:25.392Z,99893.23
2022-08-19T01:00:52.331Z,99888.86
2022-08-19T01:03:20.448Z,99886.85
2022-08-19T01:05:47.456Z,99889.45
2022-08-19T01:08:15.234Z,99891.02
2022-08-19T01:10:48.622Z,99891.39
2022-08-19T01:13:16.485Z,99890.36
2022-08-19T01:15:50.284Z,99883.91
2022-08-19T01:18:17.961Z,99886.73
2022-08-19T01:20:45.526Z,99888.25
2022-08-19T01:23:12.606Z,99889.64
2022-08-19T01:25:51.216Z,99892.09
2022-08-19T01:28:37.178Z,99890.42
2022-08-19T01:31:09.538Z,99889.55
2022-08-19T01:33:36.525Z,99890.09
2022-08-19T01:36:12.412Z,99888.71
2022-08-19T01:38:44.371Z,99893.30
2022-08-19T01:41:12.636Z,99898.71
2022-08-19T01:44:13.585Z,99900.39
2022-08-19T01:46:26.583Z,99899.58
2022-08-19T01:48:53.546Z,99897.65
2022-08-19T01:51:20.489Z,99896.50
2022-08-19T01:53:51.435Z,99898.14
2022-08-19T01:56:19.310Z,99901.46
2022-08-19T01:58:50.456Z,99899.98
2022-08-19T02:01:17.826Z,99901.27
2022-08-19T02:03:44.771Z,99906.29
2022-08-19T02:06:11.715Z,99906.77
2022-08-19T02:08:39.098Z,99904.38
2022-08-19T02:11:06.641Z,99903.41
2022-08-19T02:13:33.822Z,99903.91
2022-08-19T02:16:00.844Z,99907.00
2022-08-19T02:18:31.377Z,99907.13
2022-08-19T02:20:58.349Z,99908.45
2022-08-19T02:23:25.342Z,99910.13
2022-08-19T02:25:52.935Z,99917.70
2022-08-19T02:28:19.982Z,99919.21
2022-08-19T02:30:47.146Z,99922.05
2022-08-19T02:33:14.085Z,99922.14
2022-08-19T02:35:45.264Z,99925.09
2022-08-19T02:38:27.437Z,99927.30
2022-08-19T02:40:56.871Z,99924.14
2022-08-19T02:43:24.195Z,99932.00
2022-08-19T02:45:52.587Z,99928.35
2022-08-19T02:48:21.567Z,99927.16
2022-08-19T02:50:53.327Z,99929.98
2022-08-19T02:53:20.782Z,99931.50
2022-08-19T02:55:48.179Z,99930.30
2022-08-19T02:58:15.526Z,99929.09
2022-08-19T03:00:47.257Z,99928.58
2022-08-19T03:03:14.818Z,99927.99
2022-08-19T03:05:56.176Z,99926.77
2022-08-19T03:08:25.491Z,99930.27
2022-08-19T03:10:54.043Z,99932.64
2022-08-19T03:13:21.163Z,99929.66
2022-08-19T03:15:48.622Z,99937.42
2022-08-19T03:18:16.087Z,99940.88
2022-08-19T03:20:49.081Z,99942.50
2022-08-19T03:23:16.960Z,99940.39
2022-08-19T03:25:45.991Z,99940.91
2022-08-19T03:28:13.627Z,99936.00
2022-08-19T03:30:41.998Z,99934.65
2022-08-19T03:33:11.422Z,99932.89
2022-08-19T03:35:46.260Z,99933.73
2022-08-19T03:38:13.211Z,99940.68
2022-08-19T03:40:40.162Z,99944.50
2022-08-19T03:43:07.153Z,99948.68
2022-08-19T03:45:34.164Z,99947.52
2022-08-19T03:48:01.609Z,99951.88
2022-08-19T03:50:28.587Z,99957.77
2022-08-19T03:52:55.534Z,99958.90
2022-08-19T03:55:22.482Z,99961.99
2022-08-19T03:57:49.749Z,99960.83
2022-08-19T04:00:17.721Z,99958.88
2022-08-19T04:02:58.608Z,99963.48
2022-08-19T04:05:29.710Z,99963.73
2022-08-19T04:08:00.283Z,99968.92
2022-08-19T04:10:29.406Z,99970.42
2022-08-19T04:12:56.329Z,99970.52
2022-08-19T04:15:23.388Z,99970.61
2022-08-19T04:17:50.272Z,99968.30
2022-08-19T04:20:17.212Z,99969.51
2022-08-19T04:22:44.232Z,99968.98
2022-08-19T04:25:11.694Z,99963.27
2022-08-19T04:27:38.744Z,99962.52
2022-08-19T04:30:06.409Z,99962.10
2022-08-19T04:32:33.356Z,99963.13
2022-08-19T04:35:03.156Z,99962.59
2022-08-19T04:37:44.869Z,99966.64
2022-08-19T04:40:30.967Z,99963.45
2022-08-19T04:42:57.817Z,99966.52
2022-08-19T04:45:24.767Z,99974.55
2022-08-19T04:47:58.365Z,99974.59
2022-08-19T04:50:29.323Z,99976.25
2022-08-19T04:52:56.893Z,99976.04
2022-08-19T04:55:26.835Z,99980.28
2022-08-19T04:57:54.980Z,99977.52
2022-08-19T05:00:22.332Z,99979.98
2022-08-19T05:02:50.388Z,99982.37
2022-08-19T05:05:18.370Z,99984.05
2022-08-19T05:07:45.455Z,99982.67
2022-08-19T05:10:12.872Z,99983.20
2022-08-19T05:12:40.862Z,99977.42
2022-08-19T05:15:09.882Z,99976.04
2022-08-19T05:17:38.895Z,99980.18
2022-08-19T05:20:26.153Z,99982.30
2022-08-19T05:22:53.823Z,99977.96
2022-08-19T05:25:21.993Z,99975.00
2022-08-19T05:27:49.914Z,99974.85
2022-08-19T05:30:17.433Z,99970.48
2022-08-19T05:32:44.771Z,99972.46
2022-08-19T05:35:12.904Z,99969.35
2022-08-19T05:37:41.661Z,99964.27
2022-08-19T05:40:10.447Z,99962.95
2022-08-19T05:42:38.601Z,99964.17
2022-08-19T05:45:06.872Z,99965.34
2022-08-19T05:47:33.921Z,99963.14
2022-08-19T05:50:04.928Z,99968.27
2022-08-19T05:52:32.562Z,99969.67
2022-08-19T05:55:00.601Z,99970.56
2022-08-19T05:57:30.185Z,99969.80
2022-08-19T05:59:59.192Z,99969.44
2022-08-19T06:02:27.720Z,99967.49
2022-08-19T06:04:54.946Z,99970.33
2022-08-19T06:07:22.165Z,99966.28
2022-08-19T06:10:00.527Z,99964.77
2022-08-19T06:12:29.990Z,99964.81
2022-08-19T06:15:01.517Z,99968.78
2022-08-19T06:17:31.504Z,99967.86
2022-08-19T06:19:59.594Z,99963.31
2022-08-19T06:22:28.587Z,99965.44
2022-08-19T06:24:57.394Z,99964.61
2022-08-19T06:27:24.599Z,99967.79
2022-08-19T06:29:51.545Z,99965.55
2022-08-19T06:32:19.883Z,99968.65
2022-08-19T06:34:47.731Z,99970.91
2022-08-19T06:37:14.666Z,99971.11
2022-08-19T06:39:42.871Z,99969.67
2022-08-19T06:42:12.870Z,99965.66
2022-08-19T06:44:43.092Z,99968.53
2022-08-19T06:47:14.606Z,99969.05
2022-08-19T06:49:43.290Z,99967.54
2022-08-19T06:52:14.223Z,99966.02
2022-08-19T06:54:52.602Z,99969.42
2022-08-19T06:57:24.720Z,99966.56
2022-08-19T06:59:52.432Z,99966.25
2022-08-19T07:02:20.274Z,99963.84
2022-08-19T07:04:47.406Z,99960.17
2022-08-19T07:07:21.056Z,99964.15
2022-08-19T07:09:51.641Z,99969.56
2022-08-19T07:12:28.167Z,99966.80
2022-08-19T07:14:57.131Z,99966.67
2022-08-19T07:17:24.536Z,99965.83
2022-08-19T07:19:54.427Z,99962.15
2022-08-19T07:22:24.383Z,99971.16
2022-08-19T07:24:53.752Z,99976.59
2022-08-19T07:27:24.714Z,99982.59
2022-08-19T07:29:57.270Z,99985.63
2022-08-19T07:32:28.016Z,99986.38
2022-08-19T07:34:56.443Z,99982.52
2022-08-19T07:37:33.188Z,99978.59
2022-08-19T07:40:02.199Z,99977.58
2022-08-19T07:42:31.038Z,99974.60
2022-08-19T07:44:58.905Z,99970.10
2022-08-19T07:47:47.766Z,99969.63
2022-08-19T07:50:13.578Z,99968.10
2022-08-19T07:52:41.345Z,99969.64
2022-08-19T07:55:13.602Z,99967.55
2022-08-19T07:57:56.641Z,99970.42
2022-08-19T08:00:24.735Z,99973.60
2022-08-19T08:02:55.260Z,99977.41
2022-08-19T08:05:45.600Z,99982.05
2022-08-19T08:08:44.276Z,99985.90
2022-08-19T08:11:17.597Z,99988.95
2022-08-19T08:13:47.318Z,99989.52
2022-08-19T08:16:31.267Z,99989.40
2022-08-19T08:18:59.133Z,99998.56
2022-08-19T08:21:26.211Z,99996.94
2022-08-19T08:23:56.696Z,99996.98
2022-08-19T08:26:24.385Z,99994.81
2022-08-19T08:28:52.254Z,99994.71
2022-08-19T08:31:20.331Z,99992.39
2022-08-19T08:33:47.553Z,99992.45
2022-08-19T08:36:16.275Z,99987.07
2022-08-19T08:38:46.816Z,99982.13
2022-08-19T08:41:27.282Z,99977.56
2022-08-19T08:43:54.951Z,99980.60
2022-08-19T08:46:30.540Z,99982.96
2022-08-19T08:49:08.394Z,99984.52
2022-08-19T08:54:14.126Z,99982.07
2022-08-19T08:56:42.497Z,99983.63
2022-08-19T08:59:21.089Z,99988.00
2022-08-19T09:01:48.396Z,99994.38
2022-08-19T09:04:15.509Z,99990.51
2022-08-19T09:06:57.494Z,99989.89
2022-08-19T09:09:44.724Z,99991.83
2022-08-19T09:12:27.467Z,99987.08
2022-08-19T09:14:59.820Z,99988.34
2022-08-19T09:17:36.328Z,99990.25
2022-08-19T09:20:11.647Z,99996.80
2022-08-19T09:22:39.108Z,99996.40
2022-08-19T09:25:07.271Z,100007.98
2022-08-19T09:27:42.569Z,100010.82
2022-08-19T09:30:22.745Z,100008.05
2022-08-19T09:32:53.030Z,100006.39
2022-08-19T09:35:24.424Z,100006.15
2022-08-19T09:37:57.379Z,100005.77
2022-08-19T09:40:26.986Z,100005.46
2022-08-19T09:42:58.401Z,100007.10
2022-08-19T09:45:25.445Z,100011.69
2022-08-19T09:47:54.817Z,100012.42
2022-08-19T09:50:22.509Z,100014.14
2022-08-19T09:52:55.762Z,100015.29
2022-08-19T09:55:24.907Z,100010.19
2022-08-19T09:58:03.253Z,100008.39
2022-08-19T10:00:32.005Z,100009.29
2022-08-19T10:02:59.002Z,100011.72
2022-08-19T10:05:44.435Z,100009.34
2022-08-19T10:08:13.588Z,100011.64
2022-08-19T10:10:46.503Z,100013.98
2022-08-19T10:13:15.523Z,100011.93
2022-08-19T10:15:47.402Z,100011.36
2022-08-19T10:18:19.314Z,100010.52
2022-08-19T10:20:52.702Z,100010.40
2022-08-19T10:23:21.326Z,100006.27
2022-08-19T10:25:49.164Z,100003.83
2022-08-19T10:28:16.305Z,99997.98
2022-08-19T10:30:47.771Z,99992.73
2022-08-19T10:33:38.427Z,99993.09
2022-08-19T10:36:05.845Z,99996.79
2022-08-19T10:38:33.157Z,100002.87
2022-08-19T10:41:08.415Z,99995.78
2022-08-19T10:43:39.444Z,99996.00
2022-08-19T10:46:14.205Z,99997.98
2022-08-19T10:48:43.990Z,99998.84
2022-08-19T10:51:30.386Z,99998.01
2022-08-19T10:53:58.347Z,99998.05
2022-08-19T10:56:44.748Z,99996.80
2022-08-19T10:59:13.232Z,100002.27
2022-08-19T11:01:40.331Z,99994.53
2022-08-19T11:04:11.078Z,99994.04
2022-08-19T11:06:39.554Z,99995.48
2022-08-19T11:09:07.147Z,99993.90
2022-08-19T11:11:34.405Z,99994.59
2022-08-19T11:14:10.759Z,99996.48
2022-08-19T11:16:39.379Z,99993.66
2022-08-19T11:19:08.302Z,99994.17
2022-08-19T11:21:37.884Z,99991.92
2022-08-19T11:24:08.692Z,99992.20
2022-08-19T11:26:37.184Z,99988.77
2022-08-19T11:29:04.406Z,99989.04
2022-08-19T11:31:32.991Z,99986.48
2022-08-19T11:34:01.175Z,99986.48
2022-08-19T11:36:28.631Z,99981.64
2022-08-19T11:38:55.577Z,99976.67
2022-08-19T11:41:24.437Z,99977.15
2022-08-19T11:43:55.209Z,99983.41
2022-08-19T11:46:23.807Z,99984.44
2022-08-19T11:48:51.906Z,99983.40
2022-08-19T11:51:23.018Z,99986.92
2022-08-19T11:53:51.463Z,99985.68
2022-08-19T11:56:18.852Z,99984.57
2022-08-19T11:58:46.138Z,99985.42
2022-08-19T12:01:14.755Z,99983.95
2022-08-19T12:03:41.883Z,99980.37
2022-08-19T12:06:14.999Z,99974.08
2022-08-19T12:08:43.470Z,99969.66
2022-08-19T12:11:11.396Z,99968.92
2022-08-19T12:13:40.188Z,99972.70
2022-08-19T12:16:13.367Z,99971.04
2022-08-19T12:18:43.611Z,99968.48
2022-08-19T12:21:12.169Z,99964.73
2022-08-19T12:23:40.071Z,99961.61
2022-08-19T12:26:07.399Z,99959.36
2022-08-19T12:28:34.689Z,99955.17
2022-08-19T12:31:01.635Z,99957.52
2022-08-19T12:33:29.816Z,99955.27
2022-08-19T12:35:56.869Z,99951.65
2022-08-19T12:38:25.667Z,99951.43
2022-08-19T12:41:00.066Z,99947.99
2022-08-19T12:43:28.369Z,99945.88
2022-08-19T12:45:55.314Z,99943.21
2022-08-19T12:48:33.045Z,99944.70
2022-08-19T12:51:02.474Z,99947.00
2022-08-19T12:53:29.969Z,99947.44
2022-08-19T12:56:01.120Z,99944.10
2022-08-19T12:58:29.919Z,99940.34
2022-08-19T13:00:56.906Z,99942.17
2022-08-19T13:03:30.041Z,99937.77
2022-08-19T13:05:57.816Z,99936.33
2022-08-19T13:08:24.941Z,99929.73
2022-08-19T13:10:52.190Z,99929.52
2022-08-19T13:13:20.466Z,99931.40
2022-08-19T13:15:48.746Z,99929.51
2022-08-19T13:18:15.930Z,99927.09
2022-08-19T13:20:43.143Z,99924.02
2022-08-19T13:23:21.807Z,99918.70
2022-08-19T13:26:00.010Z,99914.23
2022-08-19T13:28:29.178Z,99911.07
2022-08-19T13:31:15.887Z,99907.19
2022-08-19T13:33:45.194Z,99913.05
2022-08-19T13:36:12.558Z,99910.38
2022-08-19T13:38:40.119Z,99911.86
2022-08-19T13:41:11.095Z,99912.36
2022-08-19T13:43:39.347Z,99909.29
2022-08-19T13:46:11.111Z,99905.88
2022-08-19T13:48:38.667Z,99909.72
2022-08-19T13:51:06.980Z,99912.64
2022-08-19T13:53:34.605Z,99911.80
2022-08-19T13:56:01.552Z,99912.41
2022-08-19T13:58:28.430Z,99912.38
2022-08-19T14:00:56.269Z,99908.38
2022-08-19T14:03:25.122Z,99909.90
2022-08-19T14:05:53.015Z,99906.34
2022-08-19T14:08:20.167Z,99910.05
2022-08-19T14:10:47.313Z,99906.17
2022-08-19T14:13:16.824Z,99909.29
2022-08-19T14:15:43.869Z,99909.95
2022-08-19T14:18:10.738Z,99908.56
2022-08-19T14:20:37.758Z,99906.48
2022-08-19T14:23:06.852Z,99903.76
2022-08-19T14:25:34.510Z,99902.92
2022-08-19T14:28:01.456Z,99898.45
2022-08-19T14:30:33.111Z,99902.13
2022-08-19T14:33:01.006Z,99905.77
2022-08-19T14:35:29.247Z,99905.91
2022-08-19T14:37:57.292Z,99901.94
2022-08-19T14:40:27.379Z,99897.74
2022-08-19T14:43:00.535Z,99899.37
2022-08-19T14:45:28.864Z,99901.86
2022-08-19T14:47:56.649Z,99899.95
2022-08-19T14:50:24.629Z,99898.95
2022-08-19T14:53:00.088Z,99904.93
2022-08-19T14:55:28.509Z,99908.15
2022-08-19T14:57:55.745Z,99907.98
2022-08-19T15:00:29.198Z,99906.71
2022-08-19T15:02:56.698Z,99904.58
2022-08-19T15:05:24.521Z,99899.14
2022-08-19T15:07:52.095Z,99900.23
2022-08-19T15:10:19.940Z,99903.34
2022-08-19T15:12:51.855Z,99905.38
2022-08-19T15:15:21.229Z,99902.91
2022-08-19T15:17:48.347Z,99903.45
2022-08-19T15:20:18.467Z,99903.74
2022-08-19T15:22:45.616Z,99906.80
2022-08-19T15:25:14.777Z,99909.16
2022-08-19T15:27:41.974Z,99911.55
2022-08-19T15:30:09.555Z,99911.64
2022-08-19T15:32:37.425Z,99913.19
2022-08-19T15:35:06.353Z,99915.95
2022-08-19T15:37:34.527Z,99915.88
2022-08-19T15:40:07.724Z,99917.17
2022-08-19T15:42:36.710Z,99917.98
2022-08-19T15:45:06.956Z,99921.34
2022-08-19T15:47:35.245Z,99919.42
2022-08-19T15:50:11.094Z,99918.08
2022-08-19T15:52:59.181Z,99919.20
2022-08-19T15:55:33.460Z,99918.58
2022-08-19T15:58:28.371Z,99926.70
2022-08-19T16:01:20.842Z,99925.64
2022-08-19T16:04:14.503Z,99925.23
2022-08-19T16:06:54.053Z,99931.03
2022-08-19T16:09:27.057Z,99933.43
2022-08-19T16:12:03.766Z,99934.19
2022-08-19T16:14:32.421Z,99937.57
2022-08-19T16:16:59.321Z,99940.17
2022-08-19T16:19:26.241Z,99937.55
2022-08-19T16:21:54.521Z,99938.10
2022-08-19T16:24:22.747Z,99938.95
2022-08-19T16:26:49.815Z,99942.20
2022-08-19T16:29:27.636Z,99945.66
2022-08-19T16:32:10.444Z,99949.85
2022-08-19T16:34:38.749Z,99954.23
2022-08-19T16:37:05.867Z,99958.92
2022-08-19T16:39:32.967Z,99962.49
2022-08-19T16:42:01.515Z,99969.43
2022-08-19T16:44:29.811Z,99968.71
2022-08-19T16:46:59.733Z,99977.60
2022-08-19T16:49:54.367Z,99988.27
2022-08-19T16:52:19.226Z,99994.38
2022-08-19T16:54:46.162Z,99995.30
2022-08-19T16:57:13.205Z,100001.33
2022-08-19T16:59:42.584Z,99998.77
2022-08-19T17:02:17.742Z,100001.36
2022-08-19T17:04:48.301Z,100001.83
2022-08-19T17:07:24.860Z,100006.44
2022-08-19T17:09:52.629Z,100010.85
2022-08-19T17:12:20.089Z,100011.67
2022-08-19T17:14:47.245Z,100011.95
2022-08-19T17:17:15.011Z,100014.64
2022-08-19T17:19:44.766Z,100015.02
2022-08-19T17:22:13.245Z,100017.77
2022-08-19T17:24:40.992Z,100020.52
2022-08-19T17:27:07.992Z,100026.15
2022-08-19T17:29:35.003Z,100027.56
2022-08-19T17:32:02.323Z,100026.61
2022-08-19T17:34:29.299Z,100030.40
2022-08-19T17:36:59.596Z,100031.50
2022-08-19T17:39:26.734Z,100035.16
2022-08-19T17:41:53.781Z,100036.05
2022-08-19T17:44:22.782Z,100039.09
2022-08-19T17:46:49.820Z,100040.96
2022-08-19T17:49:17.023Z,100040.16
2022-08-19T17:51:45.532Z,100044.05
2022-08-19T17:54:15.674Z,100049.71
2022-08-19T17:56:43.865Z,100051.54
2022-08-19T17:59:14.125Z,100053.41
2022-08-19T18:01:53.827Z,100054.89
2022-08-19T18:04:22.623Z,100051.98
2022-08-19T18:06:53.806Z,100050.47
2022-08-19T18:09:30.134Z,100054.25
2022-08-19T18:12:09.545Z,100056.52
2022-08-19T18:14:37.960Z,100059.15
2022-08-19T18:17:11.168Z,100063.45
2022-08-19T18:19:40.801Z,100061.66
2022-08-19T18:22:08.896Z,100064.34
2022-08-19T18:24:41.295Z,100066.67
2022-08-19T18:27:08.608Z,100069.02
2022-08-19T18:29:37.909Z,100064.17
2022-08-19T18:32:05.323Z,100067.70
2022-08-19T18:34:32.306Z,100067.61
2022-08-19T18:36:59.457Z,100063.67
2022-08-19T18:39:45.185Z,100065.58
2022-08-19T18:42:50.703Z,100062.31
2022-08-19T18:45:36.390Z,100062.61
2022-08-19T18:48:27.585Z,100060.33
2022-08-19T18:50:59.304Z,100060.82
2022-08-19T18:53:30.667Z,100056.59
2022-08-19T18:55:57.872Z,100054.02
2022-08-19T18:58:26.824Z,100053.47
2022-08-19T19:00:57.297Z,100052.85
2022-08-19T19:03:26.191Z,100052.02
2022-08-19T19:05:53.635Z,100046.35
2022-08-19T19:08:20.684Z,100042.65
2022-08-19T19:10:55.310Z,100042.15
2022-08-19T19:13:22.156Z,100036.54
2022-08-19T19:15:49.213Z,100030.89
2022-08-19T19:18:16.151Z,100032.08
2022-08-19T19:20:43.306Z,100034.61
2022-08-19T19:23:10.355Z,100033.89
2022-08-19T19:25:50.676Z,100035.86
2022-08-19T19:28:24.046Z,100029.15
2022-08-19T19:30:53.291Z,100028.59
2022-08-19T19:33:20.370Z,100025.27
2022-08-19T19:35:47.425Z,100024.54
2022-08-19T19:38:14.578Z,100021.98
2022-08-19T19:40:41.627Z,100022.48
2022-08-19T19:43:08.743Z,100022.79
2022-08-19T19:45:35.725Z,100024.73
2022-08-19T19:48:02.675Z,100024.75
2022-08-19T19:50:30.374Z,100022.15
2022-08-19T19:52:57.697Z,100025.20
2022-08-19T19:55:27.000Z,100024.27
2022-08-19T19:57:54.398Z,100027.86
2022-08-19T20:00:21.817Z,100030.41
2022-08-19T20:02:50.867Z,100034.27
2022-08-19T20:05:21.509Z,100033.20
2022-08-19T20:08:08.371Z,100034.67
2022-08-19T20:10:35.309Z,100038.71
2022-08-19T20:13:03.047Z,100040.49
2022-08-19T20:15:31.663Z,100040.88
2022-08-19T20:18:04.874Z,100039.27
2022-08-19T20:20:32.266Z,100039.45
2022-08-19T20:22:59.389Z,100037.65
2022-08-19T20:25:26.746Z,100033.69
2022-08-19T20:27:53.779Z,100030.66
2022-08-19T20:30:22.019Z,100032.55
2022-08-19T20:32:50.449Z,100031.58
2022-08-19T20:35:18.941Z,100029.13
2022-08-19T20:37:47.015Z,100035.71
2022-08-19T20:40:14.876Z,100036.02
2022-08-19T20:42:43.340Z,100037.63
2022-08-19T20:45:32.935Z,100037.70
2022-08-19T20:48:02.550Z,100039.56
2022-08-19T20:50:30.729Z,100038.76
2022-08-19T20:52:58.460Z,100037.54
2022-08-19T20:55:26.673Z,100037.87
2022-08-19T20:57:53.968Z,100035.84
2022-08-19T21:00:21.186Z,100035.39
2022-08-19T21:02:48.437Z,100034.52
2022-08-19T21:05:15.899Z,100037.04
2022-08-19T21:07:43.279Z,100034.79
2022-08-19T21:10:10.918Z,100036.89
2022-08-19T21:12:38.455Z,100039.08
2022-08-19T21:15:06.556Z,100040.02
2022-08-19T21:17:33.812Z,100041.05
2022-08-19T21:20:01.274Z,100041.80
2022-08-19T21:22:28.731Z,100038.16
2022-08-19T21:24:55.680Z,100038.34
2022-08-19T21:27:22.630Z,100041.31
2022-08-19T21:29:49.982Z,100041.98
2022-08-19T21:32:16.966Z,100044.02
2022-08-19T21:34:46.522Z,100049.77
2022-08-19T21:37:25.269Z,100049.82
2022-08-19T21:39:54.486Z,100048.77
2022-08-19T21:42:22.645Z,100042.09
2022-08-19T21:44:49.700Z,100040.79
2022-08-19T21:47:16.646Z,100044.88
2022-08-19T21:49:43.700Z,100049.08
2022-08-19T21:52:10.650Z,100052.36
2022-08-19T21:54:38.507Z,100049.59
2022-08-19T21:57:10.168Z,100052.06
2022-08-19T21:59:43.932Z,100053.13
2022-08-19T22:02:21.009Z,100051.65
2022-08-19T22:04:49.859Z,100055.95
2022-08-19T22:07:16.910Z,100056.02
2022-08-19T22:09:44.815Z,100057.66
2022-08-19T22:12:23.567Z,100057.45
2022-08-19T22:14:52.299Z,100059.08
2022-08-19T22:17:19.750Z,100060.11
2022-08-19T22:19:46.826Z,100059.75
2022-08-19T22:22:13.747Z,100062.30
2022-08-19T22:24:41.712Z,100060.81
2022-08-19T22:27:08.746Z,100061.88
2022-08-19T22:29:37.472Z,100059.89
2022-08-19T22:32:28.249Z,100060.63
2022-08-19T22:34:52.029Z,100062.55
2022-08-19T22:37:19.178Z,100062.59
2022-08-19T22:39:46.272Z,100062.19
2022-08-19T22:42:14.304Z,100061.75
2022-08-19T22:44:41.764Z,100060.53
2022-08-19T22:47:10.145Z,100061.11
2022-08-19T22:49:37.195Z,100064.77
2022-08-19T22:52:20.020Z,100067.45
2022-08-19T22:54:57.207Z,100074.00
2022-08-19T22:57:24.148Z,100073.11
2022-08-19T22:59:52.223Z,100070.86
2022-08-19T23:02:23.778Z,100070.08
2022-08-19T23:04:51.448Z,100073.82
2022-08-19T23:07:19.210Z,100072.89
2022-08-19T23:09:50.873Z,100071.36
2022-08-19T23:12:33.278Z,100070.33
2022-08-19T23:15:17.532Z,100073.02
2022-08-19T23:17:46.323Z,100073.73
2022-08-19T23:20:14.808Z,100072.77
2022-08-19T23:22:46.702Z,100070.01
2022-08-19T23:25:16.285Z,100064.30
2022-08-19T23:28:02.900Z,100067.45
2022-08-19T23:30:31.482Z,100070.83
2022-08-19T23:33:07.721Z,100073.20
2022-08-19T23:35:38.494Z,100069.60
2022-08-19T23:38:07.100Z,100070.56
2022-08-19T23:40:35.249Z,100067.63
2022-08-19T23:43:03.016Z,100069.71
2022-08-19T23:45:37.375Z,100066.86
2022-08-19T23:48:05.405Z,100066.74
2022-08-19T23:50:32.872Z,100070.33
2022-08-19T23:53:00.360Z,100075.20
2022-08-19T23:55:33.213Z,100076.41
2022-08-19T23:58:01.017Z,100075.48
